Brookville, Pennsylvania
Current Conditions -  °F | °C
As of 8:53 AM on Friday 19 Dec 2014 (Local Time) from KDUJ Reporting Station
Overcast Overcast  
Wind Chill: -9°   Ceiling: 1600
Heat Index: -3°   Visibility: 10mi
Dew Point: -5°   Wind: 12mph
Humidity: 88%   Direction: 280°W
Pressure: 30.1"   Gusts: NA
Location:  41.16°N, 79.08°W
Report Text: KDUJ 191353Z AUTO 28010KT 10SM OVC016 M03/M05 A3010 RMK AO2 SLP216 T10331050
Loading
Personal Weather Stations






























Interactive Weather Map New forecast layout! Learn more

10-Day Weather Forecast

Advertisements
Track Severe Weather on mobile